Time;durP1;ratioP1;P1;durP2;ratioP2;P2;SDS_P1;SDS_P2;PMS_P1;PMS_P2;Temp;Humidity;BMP_temperature;BMP_pressure;BME280_temperature;BME280_humidity;BME280_pressure;Samples;Min_cycle;Max_cycle;Signal;HPM_P1;HPM_P2
2022/08/17 00:00:09;;;;;;;13.23;9.38;;;22.70;99.90;;;;;;5061031;28;20981;-81
2022/08/17 00:02:58;;;;;;;16.65;9.98;;;22.70;99.90;;;;;;5052728;28;20874;-81
2022/08/17 00:05:31;;;;;;;14.27;9.65;;;22.70;99.90;;;;;;5052761;28;20422;-81
2022/08/17 00:07:58;;;;;;;14.32;9.98;;;22.70;99.90;;;;;;5052689;28;20419;-81
2022/08/17 00:10:26;;;;;;;15.00;9.40;;;22.70;99.90;;;;;;5052725;28;20409;-81
2022/08/17 00:12:55;;;;;;;13.90;8.33;;;22.60;99.90;;;;;;5084097;28;20384;-80
2022/08/17 00:15:23;;;;;;;13.80;7.85;;;22.60;99.90;;;;;;5052529;28;20400;-80
2022/08/17 00:17:51;;;;;;;14.85;7.97;;;22.60;99.90;;;;;;5052469;28;20425;-81
2022/08/17 00:20:20;;;;;;;12.87;7.70;;;22.60;99.90;;;;;;5051274;28;20457;-81
2022/08/17 00:23:07;;;;;;;12.65;7.43;;;22.60;99.90;;;;;;5052339;28;20384;-81
2022/08/17 00:25:35;;;;;;;18.08;8.75;;;22.60;99.90;;;;;;5050937;28;20475;-81
2022/08/17 00:28:03;;;;;;;13.23;8.75;;;22.60;99.90;;;;;;5052328;28;20761;-81
2022/08/17 00:30:32;;;;;;;14.13;8.23;;;22.60;99.90;;;;;;5050938;28;20400;-81
2022/08/17 00:33:26;;;;;;;11.95;8.05;;;22.60;99.90;;;;;;5078925;28;20474;-81
2022/08/17 00:35:55;;;;;;;13.00;8.70;;;22.50;99.90;;;;;;5051947;28;20477;-81
2022/08/17 00:38:24;;;;;;;12.52;8.30;;;22.60;99.90;;;;;;5052179;28;20400;-81
2022/08/17 00:40:58;;;;;;;13.02;8.25;;;22.60;99.90;;;;;;5052068;28;20850;-81
2022/08/17 00:43:31;;;;;;;17.98;9.18;;;22.50;99.90;;;;;;5052086;28;20463;-81
2022/08/17 00:46:01;;;;;;;14.50;8.57;;;22.50;99.90;;;;;;5051930;28;20392;-81
2022/08/17 00:48:30;;;;;;;14.68;9.15;;;22.40;99.90;;;;;;5051230;28;20646;-81
2022/08/17 00:51:08;;;;;;;14.55;8.38;;;22.40;99.90;;;;;;5058572;28;20386;-81
2022/08/17 00:53:40;;;;;;;13.02;8.13;;;22.40;99.90;;;;;;5072143;28;20397;-80
2022/08/17 00:56:12;;;;;;;15.05;7.85;;;22.40;99.90;;;;;;5070528;28;20402;-81
2022/08/17 00:58:40;;;;;;;14.00;9.40;;;22.50;99.90;;;;;;5072098;28;20386;-81
2022/08/17 01:01:11;;;;;;;12.07;8.07;;;22.40;99.90;;;;;;5071525;28;20386;-81
2022/08/17 01:03:50;;;;;;;15.98;8.35;;;22.30;99.90;;;;;;5070520;28;20382;-81
2022/08/17 01:06:20;;;;;;;15.90;8.15;;;22.30;99.90;;;;;;5070580;28;20415;-81
2022/08/17 01:08:52;;;;;;;16.73;9.60;;;22.30;99.90;;;;;;5071675;28;20382;-81
2022/08/17 01:11:25;;;;;;;17.03;8.80;;;22.30;99.90;;;;;;5071615;28;20382;-81
2022/08/17 01:13:53;;;;;;;13.98;8.63;;;22.20;99.90;;;;;;5071527;28;20386;-81
2022/08/17 01:16:24;;;;;;;13.00;8.00;;;22.20;99.90;;;;;;5071551;28;20431;-81
2022/08/17 01:18:56;;;;;;;14.07;8.02;;;22.20;99.90;;;;;;5070239;28;20887;-81
2022/08/17 01:21:43;;;;;;;12.30;8.48;;;22.20;99.90;;;;;;5070393;28;20393;-81
2022/08/17 01:24:12;;;;;;;15.50;8.60;;;22.20;99.90;;;;;;5071423;28;20856;-81
2022/08/17 01:26:43;;;;;;;15.33;8.37;;;22.20;99.90;;;;;;5071323;28;20386;-81
2022/08/17 01:29:11;;;;;;;12.02;8.35;;;22.20;99.90;;;;;;5070087;28;20833;-81
2022/08/17 01:31:44;;;;;;;14.63;8.40;;;22.10;99.90;;;;;;5071446;28;20465;-81
2022/08/17 01:34:14;;;;;;;16.73;9.00;;;22.10;99.90;;;;;;5071360;28;20382;-80
2022/08/17 01:36:45;;;;;;;13.15;8.30;;;22.10;99.90;;;;;;5071270;28;20390;-81
2022/08/17 01:39:47;;;;;;;15.98;8.20;;;22.10;99.90;;;;;;5071301;28;20388;-80
2022/08/17 01:42:25;;;;;;;10.68;8.23;;;22.10;99.90;;;;;;5071277;28;20386;-81
2022/08/17 01:44:57;;;;;;;14.63;7.78;;;22.10;99.90;;;;;;5071244;28;20428;-80
2022/08/17 01:47:25;;;;;;;17.95;8.55;;;22.00;99.90;;;;;;5069922;28;20394;-80
2022/08/17 01:49:56;;;;;;;14.20;9.27;;;22.00;99.90;;;;;;5069999;28;20432;-81
2022/08/17 01:52:23;;;;;;;12.97;8.67;;;22.00;99.90;;;;;;5071237;28;20863;-81
2022/08/17 01:54:52;;;;;;;14.13;8.52;;;21.90;99.90;;;;;;5071020;28;20398;-80
2022/08/17 01:57:19;;;;;;;11.93;8.60;;;21.90;99.90;;;;;;5069987;28;20382;-81
2022/08/17 01:59:47;;;;;;;15.00;8.50;;;21.90;99.90;;;;;;5074223;28;20397;-80
2022/08/17 02:02:14;;;;;;;12.75;8.82;;;21.90;99.90;;;;;;5075017;28;20408;-80
2022/08/17 02:04:58;;;;;;;12.65;8.90;;;21.90;99.90;;;;;;5073733;28;20468;-81
2022/08/17 02:07:26;;;;;;;14.18;8.52;;;21.80;99.90;;;;;;5073892;28;20476;-81
2022/08/17 02:09:54;;;;;;;14.00;8.67;;;21.80;99.90;;;;;;5073737;28;20417;-81
2022/08/17 02:12:22;;;;;;;17.17;9.15;;;21.80;99.90;;;;;;5073688;28;20401;-80
2022/08/17 02:15:13;;;;;;;16.13;9.23;;;21.80;99.90;;;;;;5073495;28;20489;-80
2022/08/17 02:17:42;;;;;;;16.77;10.25;;;21.70;99.90;;;;;;5074862;28;20382;-80
2022/08/17 02:20:10;;;;;;;11.02;8.15;;;21.70;99.90;;;;;;5073776;28;20378;-80
2022/08/17 02:22:40;;;;;;;10.70;8.48;;;21.70;99.90;;;;;;5074785;28;20469;-80
2022/08/17 02:25:09;;;;;;;9.98;7.65;;;21.70;99.90;;;;;;5074236;28;20402;-80
2022/08/17 02:27:38;;;;;;;13.07;8.40;;;21.60;99.90;;;;;;5073512;28;20390;-81
2022/08/17 02:30:08;;;;;;;14.02;8.48;;;21.70;99.90;;;;;;5073340;28;20852;-81
2022/08/17 02:32:56;;;;;;;13.07;8.80;;;21.60;99.90;;;;;;5074188;28;20412;-81
2022/08/17 02:35:23;;;;;;;12.43;9.20;;;21.60;99.90;;;;;;5073228;28;20957;-80
2022/08/17 02:37:51;;;;;;;13.40;8.47;;;21.60;99.90;;;;;;5074588;28;20382;-81
2022/08/17 02:40:23;;;;;;;11.52;8.13;;;21.50;99.90;;;;;;5074722;28;20389;-81
2022/08/17 02:43:04;;;;;;;13.10;8.80;;;21.60;99.90;;;;;;5103472;28;20389;-80
2022/08/17 02:45:31;;;;;;;17.40;9.20;;;21.50;99.90;;;;;;5072979;28;20382;-82
2022/08/17 02:47:59;;;;;;;10.85;8.75;;;21.40;99.90;;;;;;5068666;28;20403;-82
2022/08/17 02:50:27;;;;;;;13.23;8.50;;;21.40;99.90;;;;;;5072365;28;20382;-81
2022/08/17 02:52:55;;;;;;;14.65;8.55;;;21.40;99.90;;;;;;5062298;28;20395;-82
2022/08/17 02:55:35;;;;;;;12.68;8.15;;;21.50;99.90;;;;;;5099143;28;20432;-82
2022/08/17 02:58:04;;;;;;;14.60;8.68;;;21.40;99.90;;;;;;5073016;28;20832;-81
2022/08/17 03:00:35;;;;;;;15.57;8.85;;;21.50;99.90;;;;;;5069127;28;20380;-82
2022/08/17 03:03:04;;;;;;;13.70;8.93;;;21.40;99.90;;;;;;5070885;28;20929;-82
2022/08/17 03:05:34;;;;;;;17.30;8.95;;;21.40;99.90;;;;;;5106295;28;20906;-81
2022/08/17 03:08:04;;;;;;;16.55;9.02;;;21.40;99.90;;;;;;5073862;28;20420;-82
2022/08/17 03:10:32;;;;;;;16.63;8.97;;;21.40;99.90;;;;;;5072942;28;20387;-81
2022/08/17 03:13:00;;;;;;;13.43;9.15;;;21.30;99.90;;;;;;5072583;28;20393;-81
2022/08/17 03:15:32;;;;;;;16.02;9.52;;;21.20;99.90;;;;;;5073581;28;20398;-81
2022/08/17 03:18:02;;;;;;;14.18;8.48;;;21.20;99.90;;;;;;5073678;28;20378;-81
2022/08/17 03:20:32;;;;;;;12.32;8.93;;;21.30;99.90;;;;;;5072314;28;20864;-81
2022/08/17 03:23:00;;;;;;;14.85;8.55;;;21.30;99.90;;;;;;5073482;28;20391;-81
2022/08/17 03:25:32;;;;;;;12.57;8.68;;;21.30;99.90;;;;;;5072269;28;20751;-82
2022/08/17 03:28:02;;;;;;;12.30;8.88;;;21.30;99.90;;;;;;5073509;28;20382;-82
2022/08/17 03:30:30;;;;;;;14.18;9.70;;;21.30;99.90;;;;;;5072569;28;20469;-81
2022/08/17 03:33:01;;;;;;;14.43;8.93;;;21.30;99.90;;;;;;5073438;28;20477;-81
2022/08/17 03:35:31;;;;;;;14.60;9.82;;;21.30;99.90;;;;;;5073330;28;20395;-82
2022/08/17 03:38:00;;;;;;;12.48;8.15;;;21.20;99.90;;;;;;5073330;28;20886;-82
2022/08/17 03:40:28;;;;;;;13.13;9.32;;;21.30;99.90;;;;;;5072022;28;20394;-81
2022/08/17 03:43:18;;;;;;;16.43;9.03;;;21.20;99.90;;;;;;5073225;28;20482;-82
2022/08/17 03:57:03;;;;;;;13.73;8.63;;;21.10;99.90;;;;;;5072871;28;20394;-81
2022/08/17 03:59:31;;;;;;;14.20;8.70;;;21.20;99.90;;;;;;5072867;28;20440;-81
2022/08/17 04:02:08;;;;;;;12.65;8.43;;;21.20;99.90;;;;;;5071671;28;20455;-82
2022/08/17 04:04:37;;;;;;;11.23;8.63;;;21.20;99.90;;;;;;5072371;28;20418;-82
2022/08/17 04:07:05;;;;;;;12.13;8.80;;;21.20;99.90;;;;;;5071903;28;20425;-82
2022/08/17 04:09:33;;;;;;;12.30;8.52;;;21.20;99.90;;;;;;5072693;28;20907;-82
2022/08/17 04:12:01;;;;;;;11.90;7.97;;;21.20;99.90;;;;;;5072574;28;20387;-82
2022/08/17 04:14:35;;;;;;;12.45;8.63;;;21.20;99.90;;;;;;5071036;28;20378;-81
2022/08/17 04:17:22;;;;;;;12.57;9.20;;;21.20;99.90;;;;;;5072611;28;20839;-82
2022/08/17 04:19:51;;;;;;;12.60;9.30;;;21.30;99.90;;;;;;5072474;28;20447;-82
2022/08/17 04:22:19;;;;;;;13.65;8.73;;;21.20;99.90;;;;;;5072466;28;20378;-82
2022/08/17 04:25:02;;;;;;;11.32;8.40;;;21.20;99.90;;;;;;5072313;28;20397;-81
2022/08/17 04:27:30;;;;;;;19.73;10.10;;;21.20;99.90;;;;;;5051194;28;20396;-81
2022/08/17 04:29:59;;;;;;;14.73;9.18;;;21.20;99.90;;;;;;5052324;28;20866;-82
2022/08/17 04:32:27;;;;;;;13.73;9.73;;;21.30;99.90;;;;;;5052251;28;20502;-81
2022/08/17 04:35:27;;;;;;;12.33;8.70;;;21.30;99.90;;;;;;5052185;28;20494;-82
2022/08/17 04:37:55;;;;;;;12.27;7.97;;;21.30;99.90;;;;;;5084442;28;20881;-83
2022/08/17 04:43:19;;;;;;;14.20;7.80;;;21.30;99.90;;;;;;5055882;28;20489;-82
2022/08/17 04:45:53;;;;;;;12.25;8.65;;;21.30;99.90;;;;;;5068647;28;20389;-81
2022/08/17 04:48:28;;;;;;;9.65;8.38;;;21.30;99.90;;;;;;5070822;28;20894;-82
2022/08/17 04:51:30;;;;;;;12.15;8.52;;;21.30;99.90;;;;;;5070752;28;20393;-81
2022/08/17 04:54:01;;;;;;;12.05;8.95;;;21.30;99.90;;;;;;5068834;28;20480;-82
2022/08/17 04:56:30;;;;;;;13.20;9.23;;;21.40;99.90;;;;;;5068565;28;20768;-81
2022/08/17 04:59:02;;;;;;;12.52;8.40;;;21.40;99.90;;;;;;5071263;28;20397;-81
2022/08/17 05:01:33;;;;;;;10.40;7.70;;;21.30;99.90;;;;;;5071683;28;20840;-81
2022/08/17 05:04:05;;;;;;;10.38;8.05;;;21.30;99.90;;;;;;5070300;28;20386;-82
2022/08/17 05:06:53;;;;;;;13.63;9.68;;;21.40;99.90;;;;;;5071374;28;20386;-81
2022/08/17 05:09:21;;;;;;;11.52;9.23;;;21.30;99.90;;;;;;5070189;28;20474;-81
2022/08/17 05:11:50;;;;;;;10.43;8.80;;;21.30;99.90;;;;;;5070153;28;20401;-82
2022/08/17 05:14:18;;;;;;;13.35;9.07;;;21.30;99.90;;;;;;5070925;28;20401;-82
2022/08/17 05:16:48;;;;;;;11.75;8.35;;;21.40;99.90;;;;;;5071180;28;20480;-82
2022/08/17 05:19:15;;;;;;;11.18;9.52;;;21.40;99.90;;;;;;5071379;28;20409;-80
2022/08/17 05:21:43;;;;;;;17.40;11.30;;;21.40;99.90;;;;;;5070746;28;20390;-85
2022/08/17 05:24:11;;;;;;;24.15;17.15;;;21.40;99.90;;;;;;5103881;28;20388;-84
2022/08/17 05:27:02;;;;;;;15.40;9.45;;;21.40;99.90;;;;;;5071187;28;20510;-84
2022/08/17 05:29:33;;;;;;;13.70;10.32;;;21.40;99.90;;;;;;5070244;28;20394;-84
2022/08/17 05:32:09;;;;;;;15.95;9.55;;;21.40;99.90;;;;;;5071216;28;20393;-84
2022/08/17 05:34:58;;;;;;;15.90;8.70;;;21.50;99.90;;;;;;5055757;28;20425;-84
2022/08/17 05:37:27;;;;;;;12.68;8.93;;;21.50;99.90;;;;;;5062277;28;20399;-84
2022/08/17 05:39:54;;;;;;;12.82;9.45;;;21.40;99.90;;;;;;5070900;28;20382;-84
2022/08/17 05:42:22;;;;;;;11.90;9.13;;;21.50;99.90;;;;;;5053389;28;20383;-84
2022/08/17 05:44:50;;;;;;;10.15;8.32;;;21.50;99.90;;;;;;5050878;28;20387;-84
2022/08/17 05:47:19;;;;;;;14.05;8.98;;;21.50;99.90;;;;;;5066719;28;20453;-84
2022/08/17 05:49:46;;;;;;;12.85;8.52;;;21.60;99.90;;;;;;5066293;28;20465;-84
2022/08/17 05:52:40;;;;;;;12.35;9.65;;;21.60;99.90;;;;;;5059379;28;20488;-84
2022/08/17 05:55:25;;;;;;;11.68;9.25;;;21.50;99.90;;;;;;5069730;28;20432;-84
2022/08/17 05:58:18;;;;;;;14.32;9.60;;;21.50;99.90;;;;;;5069774;28;21096;-84
2022/08/17 06:00:55;;;;;;;13.98;9.65;;;21.50;99.90;;;;;;5071154;28;20408;-84
2022/08/17 06:03:38;;;;;;;16.48;9.73;;;21.40;99.90;;;;;;5070861;28;20425;-83
2022/08/17 06:06:43;;;;;;;12.50;9.52;;;21.40;99.90;;;;;;5069861;28;20435;-84
2022/08/17 06:09:36;;;;;;;13.70;9.40;;;21.50;99.90;;;;;;4976526;28;20455;-84
2022/08/17 06:12:44;;;;;;;11.23;9.73;;;21.40;99.90;;;;;;5070210;28;20910;-84
2022/08/17 06:15:34;;;;;;;11.35;8.75;;;21.50;99.90;;;;;;5033191;28;20884;-84
2022/08/17 06:18:07;;;;;;;16.92;10.23;;;21.50;99.90;;;;;;5069519;28;20379;-84
2022/08/17 06:20:51;;;;;;;12.35;9.25;;;21.60;99.90;;;;;;5070864;28;20385;-84
2022/08/17 06:23:29;;;;;;;14.23;9.90;;;21.60;99.90;;;;;;5070848;28;20867;-84
2022/08/17 06:26:03;;;;;;;14.37;9.17;;;21.60;99.90;;;;;;5069345;28;20421;-84
2022/08/17 06:28:42;;;;;;;10.60;9.02;;;21.60;99.90;;;;;;5053173;28;20512;-84
2022/08/17 06:31:33;;;;;;;13.65;9.77;;;21.70;99.90;;;;;;5070743;28;20394;-84
2022/08/17 06:34:03;;;;;;;15.93;9.80;;;21.70;99.90;;;;;;5070605;28;20753;-84
2022/08/17 06:36:42;;;;;;;13.48;9.77;;;21.70;99.90;;;;;;5068890;28;20398;-84
2022/08/17 06:39:42;;;;;;;14.73;9.87;;;21.70;99.90;;;;;;5069349;28;20395;-84
2022/08/17 06:42:15;;;;;;;12.40;9.40;;;21.70;99.90;;;;;;5068306;28;20491;-83
2022/08/17 06:45:17;;;;;;;17.00;9.50;;;21.70;99.90;;;;;;5052881;28;20563;-83
2022/08/17 06:48:10;;;;;;;38.78;10.68;;;21.70;99.90;;;;;;5074087;28;20382;-83
2022/08/17 06:50:46;;;;;;;15.98;9.63;;;21.80;99.90;;;;;;5074284;28;20937;-84
2022/08/17 06:53:19;;;;;;;14.13;9.32;;;21.80;99.90;;;;;;5074147;28;20833;-83
2022/08/17 06:56:10;;;;;;;13.65;9.02;;;21.80;99.90;;;;;;5072124;28;20451;-83
2022/08/17 06:58:42;;;;;;;15.05;9.23;;;21.80;99.90;;;;;;5071113;28;20391;-84
2022/08/17 07:01:23;;;;;;;14.27;9.18;;;21.80;99.90;;;;;;5073490;28;20498;-83
2022/08/17 07:04:12;;;;;;;11.38;8.88;;;21.80;99.90;;;;;;5072061;28;20473;-83
2022/08/17 07:06:51;;;;;;;12.43;8.90;;;21.80;99.90;;;;;;5072061;28;20425;-83
2022/08/17 07:09:34;;;;;;;13.32;9.48;;;21.80;99.90;;;;;;5072249;28;20394;-84
2022/08/17 07:12:16;;;;;;;14.45;8.48;;;21.90;99.90;;;;;;5072459;28;20477;-84
2022/08/17 07:15:19;;;;;;;13.95;9.02;;;21.90;99.90;;;;;;5072678;28;20402;-83
2022/08/17 07:17:47;;;;;;;13.68;9.52;;;22.00;99.90;;;;;;5070924;28;20414;-83
2022/08/17 07:20:21;;;;;;;11.35;8.40;;;22.00;99.90;;;;;;5072784;28;20412;-83
2022/08/17 07:23:03;;;;;;;10.93;8.68;;;22.10;99.90;;;;;;5072320;28;20400;-84
2022/08/17 07:25:31;;;;;;;17.10;8.43;;;22.10;99.90;;;;;;5073486;28;20398;-84
2022/08/17 07:28:03;;;;;;;12.27;8.35;;;22.20;99.90;;;;;;5073526;28;20391;-83
2022/08/17 07:30:53;;;;;;;11.27;7.93;;;22.20;99.90;;;;;;5072389;28;20410;-84
2022/08/17 07:33:26;;;;;;;13.30;8.60;;;22.20;99.90;;;;;;5072029;28;20760;-83
2022/08/17 07:35:57;;;;;;;12.37;8.00;;;22.30;99.90;;;;;;5073220;28;20501;-83
2022/08/17 07:38:28;;;;;;;12.38;8.57;;;22.40;99.90;;;;;;5072078;28;20415;-83
2022/08/17 07:41:00;;;;;;;12.00;8.23;;;22.50;99.90;;;;;;5073052;28;20382;-84
2022/08/17 07:43:28;;;;;;;13.63;8.07;;;22.50;99.90;;;;;;5064025;28;20410;-83
2022/08/17 07:49:13;;;;;;;12.98;7.72;;;22.70;99.90;;;;;;5071982;28;20397;-83
2022/08/17 07:51:42;;;;;;;13.05;7.57;;;22.80;99.90;;;;;;5072108;28;20397;-83
2022/08/17 07:54:22;;;;;;;14.27;7.75;;;22.80;99.90;;;;;;5072355;28;20444;-83
2022/08/17 07:56:54;;;;;;;16.33;8.18;;;22.90;99.90;;;;;;5071564;28;20402;-84
2022/08/17 07:59:24;;;;;;;12.05;7.40;;;23.00;99.90;;;;;;5070086;28;20825;-84
2022/08/17 08:02:04;;;;;;;14.85;8.07;;;23.00;99.90;;;;;;5102251;28;20382;-84
2022/08/17 08:04:41;;;;;;;15.25;7.50;;;23.10;99.90;;;;;;5104630;28;20880;-84
2022/08/17 08:07:34;;;;;;;14.32;7.88;;;23.20;99.90;;;;;;5072884;28;20385;-83
2022/08/17 08:10:26;;;;;;;13.32;7.28;;;23.30;99.90;;;;;;5072913;28;20456;-84
2022/08/17 08:13:23;;;;;;;13.60;7.50;;;23.40;99.90;;;;;;5072491;28;20386;-84
2022/08/17 08:15:55;;;;;;;12.83;7.67;;;23.40;99.90;;;;;;5071152;28;20469;-84
2022/08/17 08:18:35;;;;;;;13.45;7.63;;;23.50;99.90;;;;;;5071608;28;20379;-83
2022/08/17 08:21:36;;;;;;;10.30;6.80;;;23.50;99.90;;;;;;5071150;28;20382;-83
2022/08/17 08:24:38;;;;;;;12.10;6.78;;;23.70;99.90;;;;;;5072376;28;20397;-83
2022/08/17 08:27:21;;;;;;;15.88;7.43;;;23.70;99.90;;;;;;5071178;28;20394;-84
2022/08/17 08:29:56;;;;;;;14.70;7.00;;;23.70;99.90;;;;;;5071058;28;20393;-83
2022/08/17 08:32:48;;;;;;;14.98;6.93;;;23.80;99.90;;;;;;5071218;28;20387;-83
2022/08/17 08:35:36;;;;;;;11.55;6.72;;;23.90;99.90;;;;;;5072213;28;20386;-83
2022/08/17 08:38:16;;;;;;;11.55;6.32;;;23.90;99.90;;;;;;5070744;28;20410;-83
2022/08/17 08:40:58;;;;;;;14.02;7.07;;;23.90;99.90;;;;;;5071960;28;20382;-83
2022/08/17 08:43:34;;;;;;;10.90;7.25;;;24.00;99.90;;;;;;5071059;28;20933;-83
2022/08/17 08:46:18;;;;;;;12.93;7.60;;;24.10;99.90;;;;;;5070723;28;20386;-83
2022/08/17 08:49:11;;;;;;;14.55;7.43;;;24.10;99.90;;;;;;5070695;28;20386;-83
2022/08/17 08:51:55;;;;;;;10.65;6.95;;;24.20;99.90;;;;;;5070773;28;20439;-83
2022/08/17 08:54:55;;;;;;;12.48;6.90;;;24.30;99.90;;;;;;5072088;28;20414;-83
2022/08/17 08:57:32;;;;;;;13.05;7.25;;;24.30;99.90;;;;;;5071720;28;20397;-83
2022/08/17 09:00:16;;;;;;;14.15;7.05;;;24.40;99.90;;;;;;5070534;28;20394;-81
2022/08/17 09:03:13;;;;;;;13.13;6.57;;;24.40;99.90;;;;;;5071729;28;20786;-82
2022/08/17 09:06:31;;;;;;;12.15;6.20;;;24.60;99.90;;;;;;5051753;28;20376;-82
2022/08/17 09:09:30;;;;;;;14.20;7.00;;;24.60;99.90;;;;;;5040008;28;20461;-84
2022/08/17 09:12:12;;;;;;;12.55;6.10;;;24.70;99.90;;;;;;5050595;28;20391;-82
2022/08/17 09:14:50;;;;;;;11.23;6.03;;;24.80;99.90;;;;;;5059144;28;20425;-82
2022/08/17 09:17:34;;;;;;;10.13;6.18;;;24.90;99.90;;;;;;5083654;28;20410;-81
2022/08/17 09:20:24;;;;;;;11.65;6.03;;;24.80;99.90;;;;;;5070162;28;20947;-82
2022/08/17 09:23:07;;;;;;;12.77;6.35;;;25.00;99.90;;;;;;5071343;28;20427;-81
2022/08/17 09:25:48;;;;;;;11.00;6.30;;;25.00;99.90;;;;;;5065406;28;20400;-81
2022/08/17 09:28:25;;;;;;;12.77;6.50;;;25.10;99.90;;;;;;5050563;28;20460;-81
2022/08/17 09:31:02;;;;;;;13.68;6.90;;;25.10;99.90;;;;;;5051258;28;20383;-81
2022/08/17 09:33:35;;;;;;;13.83;6.97;;;25.10;99.90;;;;;;5051311;28;20470;-81
2022/08/17 09:36:21;;;;;;;17.87;7.17;;;25.20;99.90;;;;;;5050053;28;20384;-81
2022/08/17 09:39:05;;;;;;;9.50;6.32;;;25.40;99.90;;;;;;5049756;28;20801;-81
2022/08/17 09:41:38;;;;;;;9.40;6.10;;;25.30;99.90;;;;;;5058816;28;20803;-78
2022/08/17 09:44:50;;;;;;;7.95;5.68;;;25.40;99.90;;;;;;5062996;28;20789;-82
2022/08/17 09:47:21;;;;;;;14.85;6.28;;;25.40;99.90;;;;;;5071339;28;20382;-82
2022/08/17 09:50:00;;;;;;;11.48;5.63;;;25.40;99.90;;;;;;5069926;28;20398;-82
2022/08/17 09:52:30;;;;;;;10.55;5.35;;;25.40;99.90;;;;;;5071170;28;20460;-83
2022/08/17 09:55:00;;;;;;;10.95;5.78;;;25.50;99.90;;;;;;5070881;28;20838;-81
2022/08/17 09:57:37;;;;;;;13.30;5.57;;;25.60;99.90;;;;;;5069969;28;20397;-83
2022/08/17 10:00:17;;;;;;;12.05;5.78;;;25.60;99.90;;;;;;5070103;28;20382;-83
2022/08/17 10:03:00;;;;;;;8.20;5.45;;;25.60;99.90;;;;;;5041075;28;20619;-81
2022/08/17 10:05:40;;;;;;;12.88;5.30;;;25.70;99.90;;;;;;5091747;28;20390;-83
2022/08/17 10:08:16;;;;;;;10.15;5.63;;;25.80;99.90;;;;;;5071187;28;20418;-83
2022/08/17 10:11:06;;;;;;;12.65;5.55;;;25.90;99.90;;;;;;5071000;28;20392;-82
2022/08/17 10:13:59;;;;;;;12.30;5.40;;;26.00;99.90;;;;;;5069493;28;20390;-83
2022/08/17 10:17:01;;;;;;;10.88;5.85;;;26.00;99.90;;;;;;5057487;28;20405;-82
2022/08/17 10:19:34;;;;;;;11.15;5.63;;;26.00;99.90;;;;;;5062219;28;20479;-83
2022/08/17 10:28:21;;;;;;;10.88;5.65;;;26.20;99.90;;;;;;5072075;28;20408;-82
2022/08/17 10:31:00;;;;;;;12.15;5.72;;;26.20;99.90;;;;;;5073343;28;20402;-82
2022/08/17 10:33:59;;;;;;;13.13;6.55;;;26.30;99.90;;;;;;5073635;28;20440;-82
2022/08/17 10:36:40;;;;;;;11.25;5.70;;;26.40;99.90;;;;;;5073425;28;20386;-82
2022/08/17 10:39:10;;;;;;;11.15;5.90;;;26.40;99.90;;;;;;5073270;28;20393;-82
2022/08/17 10:41:43;;;;;;;11.15;5.60;;;26.30;99.90;;;;;;5073329;28;20906;-82
2022/08/17 10:44:45;;;;;;;15.40;13.10;;;26.50;99.90;;;;;;5106890;28;20495;-82
2022/08/17 10:47:17;;;;;;;11.05;6.85;;;26.50;99.90;;;;;;5074399;28;20413;-82
2022/08/17 10:49:52;;;;;;;14.13;11.05;;;26.60;99.90;;;;;;5074020;28;20424;-82
2022/08/17 10:52:26;;;;;;;10.43;7.32;;;26.70;99.90;;;;;;5073202;28;20386;-82
2022/08/17 10:54:55;;;;;;;10.18;5.22;;;26.70;99.90;;;;;;5054179;28;20457;-81
2022/08/17 10:57:30;;;;;;;9.88;5.30;;;26.80;99.90;;;;;;5062243;28;20435;-82
2022/08/17 11:00:14;;;;;;;11.40;5.47;;;26.70;99.90;;;;;;5071554;28;20409;-81
2022/08/17 11:02:48;;;;;;;10.00;5.47;;;26.90;99.90;;;;;;5069917;28;20452;-82
2022/08/17 11:05:43;;;;;;;8.38;5.18;;;26.90;99.90;;;;;;5065801;28;20408;-83
2022/08/17 11:08:28;;;;;;;11.02;5.55;;;26.90;99.90;;;;;;5067379;28;20471;-82
2022/08/17 11:11:11;;;;;;;11.00;5.05;;;26.90;99.90;;;;;;5070784;28;20433;-82
2022/08/17 11:13:47;;;;;;;14.50;5.30;;;26.90;99.90;;;;;;5065257;28;20388;-82
2022/08/17 11:16:23;;;;;;;7.97;5.40;;;27.10;99.90;;;;;;5071713;28;20409;-82
2022/08/17 11:19:22;;;;;;;13.05;5.25;;;27.10;99.90;;;;;;5072854;28;20486;-82
2022/08/17 11:22:19;;;;;;;7.22;5.10;;;27.20;99.90;;;;;;5072374;28;20386;-82
2022/08/17 11:24:51;;;;;;;10.32;4.38;;;27.10;99.90;;;;;;5104265;28;20707;-82
2022/08/17 11:27:29;;;;;;;8.52;4.90;;;27.20;99.90;;;;;;5073401;28;20397;-81
2022/08/17 11:30:07;;;;;;;10.80;5.15;;;27.20;99.90;;;;;;5085596;28;20390;-81
2022/08/17 11:32:48;;;;;;;10.95;5.10;;;27.40;99.90;;;;;;5084914;28;20775;-81
2022/08/17 11:35:37;;;;;;;13.07;5.35;;;27.50;99.90;;;;;;5052110;28;20873;-82
2022/08/17 11:38:25;;;;;;;7.50;4.93;;;27.60;99.90;;;;;;5053318;28;20407;-82
2022/08/17 11:41:03;;;;;;;8.73;5.35;;;27.60;99.90;;;;;;5053165;28;20387;-82
2022/08/17 11:43:42;;;;;;;7.93;4.90;;;27.50;99.90;;;;;;5053400;28;20884;-82
2022/08/17 11:52:46;;;;;;;10.55;4.90;;;27.30;99.90;;;;;;5053145;28;20474;-82
2022/08/17 11:55:35;;;;;;;9.80;5.40;;;27.40;99.90;;;;;;5055269;28;20391;-81
2022/08/17 11:58:26;;;;;;;9.80;4.60;;;27.50;99.90;;;;;;5072940;28;20421;-81
2022/08/17 12:00:58;;;;;;;8.07;5.03;;;27.60;99.90;;;;;;5064472;28;20408;-82
2022/08/17 12:03:31;;;;;;;10.18;4.78;;;27.60;99.90;;;;;;5057935;28;20388;-82
2022/08/17 12:06:19;;;;;;;10.93;4.90;;;27.50;99.90;;;;;;5071164;28;20389;-81
2022/08/17 12:08:52;;;;;;;10.23;4.55;;;27.50;99.90;;;;;;5041795;28;20398;-81
2022/08/17 12:11:25;;;;;;;11.43;4.88;;;27.50;99.90;;;;;;5072808;28;20798;-82
2022/08/17 12:14:21;;;;;;;9.30;4.80;;;27.40;99.90;;;;;;5072563;28;20966;-82
2022/08/17 12:17:12;;;;;;;13.17;5.27;;;27.30;99.90;;;;;;5072632;28;20760;-81
2022/08/17 12:19:54;;;;;;;10.57;5.43;;;27.30;99.90;;;;;;5072669;28;20381;-82
2022/08/17 12:22:31;;;;;;;19.48;5.60;;;27.30;99.90;;;;;;5071078;28;20402;-82
2022/08/17 12:25:14;;;;;;;14.85;5.38;;;27.20;99.90;;;;;;5070651;28;20382;-82
2022/08/17 12:27:50;;;;;;;10.60;5.35;;;27.30;99.90;;;;;;5071403;28;20472;-81
2022/08/17 12:30:36;;;;;;;9.32;4.63;;;27.20;99.90;;;;;;5066924;28;20398;-81
2022/08/17 12:33:12;;;;;;;10.70;5.07;;;27.20;99.90;;;;;;5054638;28;20394;-82
2022/08/17 12:36:04;;;;;;;11.27;4.90;;;27.30;99.90;;;;;;5072041;28;20459;-82
2022/08/17 12:38:34;;;;;;;12.85;5.03;;;27.40;99.90;;;;;;5039746;28;20486;-81
2022/08/17 12:43:57;;;;;;;7.40;4.67;;;27.40;99.90;;;;;;5058274;28;20764;-81
2022/08/17 12:46:25;;;;;;;10.05;4.95;;;27.40;99.90;;;;;;5060646;28;20392;-82
2022/08/17 12:49:09;;;;;;;8.30;5.00;;;27.40;99.90;;;;;;5055855;28;20427;-82
2022/08/17 12:51:45;;;;;;;15.27;5.00;;;27.40;99.90;;;;;;5048721;28;20755;-82
2022/08/17 12:54:28;;;;;;;9.02;4.80;;;27.40;99.90;;;;;;5081821;28;21127;-81
2022/08/17 12:57:00;;;;;;;10.82;5.13;;;27.40;99.90;;;;;;5064738;28;20433;-82
2022/08/17 12:59:31;;;;;;;9.07;5.03;;;27.60;99.90;;;;;;5069181;28;20436;-81
2022/08/17 13:02:00;;;;;;;9.73;5.07;;;27.70;99.90;;;;;;5084143;28;20398;-81
2022/08/17 13:04:30;;;;;;;8.90;5.33;;;27.70;99.90;;;;;;5071426;28;20398;-81
2022/08/17 13:06:59;;;;;;;11.97;5.20;;;27.70;99.90;;;;;;5071137;28;20390;-81
2022/08/17 13:09:28;;;;;;;12.65;5.47;;;27.80;99.90;;;;;;5065460;28;20394;-81
2022/08/17 13:12:06;;;;;;;8.20;5.15;;;27.70;99.90;;;;;;5038792;28;20391;-82
2022/08/17 13:14:35;;;;;;;10.48;5.18;;;27.80;99.90;;;;;;5058308;28;20868;-82
2022/08/17 13:17:04;;;;;;;9.00;5.00;;;27.80;99.90;;;;;;5062691;28;20744;-82
2022/08/17 13:19:48;;;;;;;10.20;5.47;;;27.90;99.90;;;;;;5030852;28;20951;-82
2022/08/17 13:22:22;;;;;;;12.23;5.38;;;28.00;99.90;;;;;;5051515;28;20862;-82
2022/08/17 13:25:04;;;;;;;26.77;6.40;;;28.00;99.90;;;;;;5034699;28;20482;-80
2022/08/17 13:27:32;;;;;;;9.77;5.38;;;28.00;99.90;;;;;;5050969;28;20375;-82
2022/08/17 13:30:11;;;;;;;14.30;5.68;;;28.10;99.90;;;;;;5066246;28;20395;-82
2022/08/17 13:32:42;;;;;;;10.25;5.35;;;28.00;99.90;;;;;;5050153;28;20403;-81
2022/08/17 13:35:33;;;;;;;8.75;5.22;;;28.00;99.90;;;;;;5023882;28;20587;-82
2022/08/17 13:38:12;;;;;;;12.40;5.38;;;28.00;99.90;;;;;;5038809;28;20943;-81
2022/08/17 13:40:48;;;;;;;11.90;5.68;;;28.10;99.90;;;;;;5051122;28;20391;-81
2022/08/17 13:43:39;;;;;;;7.45;5.10;;;28.00;99.90;;;;;;5066473;28;20740;-82
2022/08/17 13:46:15;;;;;;;14.80;6.05;;;27.80;99.90;;;;;;5038141;28;20401;-81
2022/08/17 13:48:44;;;;;;;14.25;5.25;;;27.80;99.90;;;;;;5045311;28;20389;-81
2022/08/17 13:51:16;;;;;;;26.58;12.82;;;27.80;99.90;;;;;;5048317;28;20399;-81
2022/08/17 13:53:44;;;;;;;28.92;15.68;;;27.70;99.90;;;;;;5046865;28;20407;-81
2022/08/17 13:56:34;;;;;;;9.98;6.40;;;27.70;99.90;;;;;;5052978;28;20403;-82
2022/08/17 13:59:11;;;;;;;8.80;5.38;;;27.60;99.90;;;;;;5050731;28;20422;-80
2022/08/17 14:01:47;;;;;;;10.00;5.55;;;27.50;99.90;;;;;;5049678;28;20404;-82